Search for airport 
image banner adimage banner adimage banner ad
image banner ad

23IA - Shenandoah Hospital

Located in Shenandoah, United States

ICAO - 23IA, IATA -

Data provided by Airmate  

General information

Coordinates: N40°45'10" W95°22'8"
Elevation is 1039 feet MSL.
Magnetic variation is 05° East
View others Airports in Iowa

Operational data

Special qualification required
Current time UTC:
Current local time:
Weather at : KSDA - Shenandoah Muni ( 4 km )
METAR: KSDA 181755Z AUTO 09015KT 9SM CLR 32/19 A2974 RMK AO2
View NOTAMs / SUP AIP / TFR affecting this airport [VIEW]
Communications frequencies: [VIEW]

Runways:

Airport contact information

Address: Shenandoah United States

Satellite view of 23IA